Time;durP1;ratioP1;P1;durP2;ratioP2;P2;SDS_P1;SDS_P2;PMS_P1;PMS_P2;Temp;Humidity;BMP_temperature;BMP_pressure;BME280_temperature;BME280_humidity;BME280_pressure;Samples;Min_cycle;Max_cycle;Signal;HPM_P1;HPM_P2
2021/11/17 02:27:43;;;;;;;32.65;13.23;;;;;;;3.08;83.47;100838.63;8488739;33;20249;-75
2021/11/17 02:33:16;;;;;;;41.00;16.23;;;;;;;2.78;83.61;100831.03;8490899;33;20174;-75
2021/11/17 02:38:44;;;;;;;34.30;14.57;;;;;;;3.10;82.80;100810.19;8490673;33;20252;-75
2021/11/17 02:44:09;;;;;;;36.50;14.20;;;;;;;2.95;83.01;100815.25;8490749;33;20186;-75
2021/11/17 02:49:51;;;;;;;37.03;15.95;;;;;;;2.95;83.61;100801.13;8490575;33;20236;-75
2021/11/17 02:55:32;;;;;;;39.95;16.35;;;;;;;3.09;83.10;100800.53;8490592;33;20186;-75
2021/11/17 03:01:24;;;;;;;39.63;16.20;;;;;;;2.99;83.53;100803.59;8488799;33;20178;-75
2021/11/17 03:06:58;;;;;;;43.40;17.45;;;;;;;3.18;83.55;100797.47;8489619;33;21563;-75
2021/11/17 03:12:37;;;;;;;39.47;16.13;;;;;;;3.09;83.55;100789.91;8489997;33;21940;-75
2021/11/17 03:17:58;;;;;;;33.72;13.35;;;;;;;2.96;83.00;100786.91;8489378;33;20262;-76
2021/11/17 03:23:26;;;;;;;35.17;13.70;;;;;;;2.99;82.76;100769.09;8489124;33;20445;-75
2021/11/17 03:29:00;;;;;;;33.47;13.52;;;;;;;3.17;81.93;100766.53;8489796;33;20500;-75
2021/11/17 03:34:55;;;;;;;33.13;14.25;;;;;;;3.18;81.91;100776.22;8479723;33;20467;-75
2021/11/17 03:40:55;;;;;;;39.97;15.05;;;;;;;3.17;82.03;100785.13;8482065;33;20952;-75
2021/11/17 03:46:29;;;;;;;36.90;14.63;;;;;;;3.08;82.34;100797.00;8448161;33;20242;-75
2021/11/17 03:52:09;;;;;;;33.78;13.70;;;;;;;3.04;82.45;100795.41;8477279;33;20213;-75
2021/11/17 03:57:35;;;;;;;31.73;14.73;;;;;;;3.12;82.36;100787.13;8487626;33;20232;-75
2021/11/17 04:03:04;;;;;;;30.15;12.25;;;;;;;3.05;82.26;100797.16;8487566;33;20734;-75
2021/11/17 04:08:31;;;;;;;30.35;13.70;;;;;;;3.15;81.99;100798.44;8489293;33;20260;-75
2021/11/17 04:13:47;;;;;;;29.40;11.73;;;;;;;2.88;83.28;100797.88;8488625;33;20198;-75
2021/11/17 04:19:12;;;;;;;30.83;11.60;;;;;;;3.08;82.58;100807.63;8491695;33;20179;-75
2021/11/17 04:24:39;;;;;;;34.70;12.90;;;;;;;3.13;82.76;100812.75;8488199;33;20517;-75
2021/11/17 04:30:10;;;;;;;32.47;11.38;;;;;;;2.98;83.59;100814.25;8488728;33;21160;-75
2021/11/17 04:36:16;;;;;;;26.88;11.05;;;;;;;2.99;83.62;100811.56;8486590;33;20999;-75
2021/11/17 04:42:16;;;;;;;27.58;11.95;;;;;;;2.85;84.42;100813.91;8427456;34;20673;-75
2021/11/17 04:47:40;;;;;;;26.45;9.20;;;;;;;2.84;84.56;100823.66;8476607;33;20143;-75
2021/11/17 04:53:07;;;;;;;30.00;10.48;;;;;;;2.78;84.94;100820.41;8489552;33;20515;-75
2021/11/17 04:58:39;;;;;;;31.48;10.98;;;;;;;2.75;85.08;100829.34;8487430;33;20680;-75
2021/11/17 05:04:06;;;;;;;22.40;9.30;;;;;;;2.59;86.42;100829.13;8489068;33;20693;-74
2021/11/17 05:09:23;;;;;;;21.52;8.18;;;;;;;2.75;85.32;100837.31;8493429;33;20163;-75
2021/11/17 05:14:37;;;;;;;27.25;9.80;;;;;;;2.88;85.38;100828.81;8492786;33;20549;-75
2021/11/17 05:19:53;;;;;;;24.95;9.90;;;;;;;2.84;84.71;100828.97;8492824;33;20637;-75
2021/11/17 05:25:19;;;;;;;24.58;9.25;;;;;;;3.05;84.63;100826.34;8491994;33;20315;-75
2021/11/17 05:30:54;;;;;;;22.58;9.32;;;;;;;2.98;84.64;100825.72;8492181;33;20151;-75
2021/11/17 05:36:16;;;;;;;27.98;10.30;;;;;;;2.90;84.99;100819.88;8492254;33;20187;-75
2021/11/17 05:41:42;;;;;;;22.02;9.07;;;;;;;2.77;85.06;100831.94;8492188;33;20425;-75
2021/11/17 05:47:04;;;;;;;17.15;6.70;;;;;;;2.72;85.44;100824.19;8491298;33;20249;-75
2021/11/17 05:52:36;;;;;;;29.20;11.10;;;;;;;2.93;85.15;100829.50;8491930;33;20194;-75
2021/11/17 05:58:01;;;;;;;34.60;14.02;;;;;;;2.83;85.56;100815.78;8489486;33;20298;-75
2021/11/17 06:03:27;;;;;;;30.55;12.32;;;;;;;2.93;85.09;100821.53;8491298;33;20194;-75
2021/11/17 06:08:30;;;;;;;27.67;12.18;;;;;;;2.87;85.10;100816.50;8491887;33;20521;-75
2021/11/17 06:13:34;;;;;;;31.58;13.13;;;;;;;3.22;84.32;100820.31;8491178;33;20221;-76
2021/11/17 06:18:38;;;;;;;27.45;12.68;;;;;;;2.92;85.06;100827.78;8489659;33;20599;-75
2021/11/17 06:23:47;;;;;;;39.42;14.27;;;;;;;3.15;84.42;100819.69;8490751;33;20190;-75
2021/11/17 06:28:56;;;;;;;24.67;10.95;;;;;;;3.16;83.73;100817.94;8493231;33;20708;-75
2021/11/17 06:33:59;;;;;;;27.65;11.38;;;;;;;3.06;83.89;100823.59;8490230;33;20245;-75
2021/11/17 06:39:05;;;;;;;33.53;14.48;;;;;;;3.27;83.84;100824.50;8492108;33;20310;-75
2021/11/17 06:44:20;;;;;;;25.17;10.20;;;;;;;3.06;84.36;100822.75;8491537;33;20670;-75
2021/11/17 06:49:24;;;;;;;37.10;13.48;;;;;;;3.41;83.59;100838.97;8490969;33;20147;-75
2021/11/17 06:54:27;;;;;;;27.35;13.18;;;;;;;2.94;84.65;100826.81;8491159;33;20190;-75
2021/11/17 06:59:31;;;;;;;38.55;15.38;;;;;;;3.37;83.78;100802.81;8490281;33;20194;-75
2021/11/17 07:04:37;;;;;;;36.75;13.65;;;;;;;3.26;84.03;100798.88;8496248;33;20727;-75
2021/11/17 07:09:41;;;;;;;38.97;16.40;;;;;;;3.25;84.20;100789.16;8512376;33;20436;-75
2021/11/17 07:14:45;;;;;;;33.97;13.30;;;;;;;3.17;83.62;100790.44;8498102;33;20187;-75
2021/11/17 07:19:49;;;;;;;38.38;17.17;;;;;;;3.39;83.61;100787.69;8491274;33;20558;-75
2021/11/17 07:24:52;;;;;;;46.45;16.95;;;;;;;3.59;82.68;100803.59;8490899;33;20146;-75
2021/11/17 07:29:57;;;;;;;40.17;16.90;;;;;;;3.64;82.88;100816.66;8490998;33;21282;-75
2021/11/17 07:35:00;;;;;;;43.10;16.25;;;;;;;3.70;82.36;100842.94;8489825;33;20253;-75
2021/11/17 07:40:06;;;;;;;45.80;17.60;;;;;;;3.54;82.85;100841.91;8490448;33;20147;-75
2021/11/17 07:45:16;;;;;;;47.13;18.13;;;;;;;3.69;81.96;100854.53;8490353;33;20523;-75
2021/11/17 07:50:20;;;;;;;49.65;19.17;;;;;;;3.66;82.53;100850.22;8489448;33;20229;-74
2021/11/17 07:55:23;;;;;;;39.65;13.38;;;;;;;3.48;82.84;100846.59;8489115;33;20459;-75
2021/11/17 08:00:32;;;;;;;50.58;21.83;;;;;;;3.76;82.41;100836.50;8489358;33;20998;-74
2021/11/17 08:05:35;;;;;;;51.63;20.80;;;;;;;3.87;81.83;100832.44;8490082;33;20817;-74
2021/11/17 08:10:40;;;;;;;48.90;17.98;;;;;;;3.81;81.98;100824.72;8490482;33;20846;-74
2021/11/17 08:15:45;;;;;;;33.03;13.85;;;;;;;3.65;82.21;100835.22;8489948;33;20519;-74
2021/11/17 08:20:48;;;;;;;36.50;15.75;;;;;;;3.78;82.21;100824.88;8490762;33;20178;-75
2021/11/17 08:25:51;;;;;;;41.05;15.85;;;;;;;3.94;81.39;100822.38;8490165;33;20221;-75
2021/11/17 08:30:55;;;;;;;33.75;13.63;;;;;;;4.24;80.26;100817.41;8489551;33;20901;-74
2021/11/17 08:36:00;;;;;;;27.00;12.52;;;;;;;3.83;81.13;100837.97;8487500;33;20693;-74
2021/11/17 08:41:08;;;;;;;35.67;14.85;;;;;;;4.17;80.36;100829.28;8493190;33;20647;-74
2021/11/17 08:46:14;;;;;;;30.65;13.13;;;;;;;4.04;80.61;100833.44;8494951;33;20632;-76
2021/11/17 08:51:20;;;;;;;27.73;11.48;;;;;;;3.97;81.23;100829.34;8495760;33;20459;-75
2021/11/17 08:56:24;;;;;;;35.50;14.77;;;;;;;3.99;81.07;100836.31;8492928;33;20155;-74
2021/11/17 09:01:31;;;;;;;35.80;17.40;;;;;;;4.40;80.12;100837.00;8495394;33;20225;-75
2021/11/17 09:06:34;;;;;;;36.35;15.80;;;;;;;4.46;79.93;100833.19;8492746;33;20440;-74
2021/11/17 09:11:40;;;;;;;39.08;16.10;;;;;;;4.59;79.16;100830.81;8493779;33;20189;-75
2021/11/17 09:16:46;;;;;;;35.50;16.10;;;;;;;4.25;80.27;100832.44;8492763;33;20696;-75
2021/11/17 09:21:51;;;;;;;32.42;15.35;;;;;;;4.50;79.34;100841.88;8493330;33;20597;-74
2021/11/17 09:26:55;;;;;;;32.70;13.77;;;;;;;4.61;79.63;100827.13;8493133;33;20163;-75
2021/11/17 09:32:01;;;;;;;32.35;14.38;;;;;;;4.34;79.85;100842.63;8493159;33;20265;-75
2021/11/17 09:37:07;;;;;;;33.22;13.95;;;;;;;4.29;80.91;100849.13;8492438;33;20190;-75
2021/11/17 09:42:12;;;;;;;32.38;13.82;;;;;;;4.47;80.77;100836.72;8493134;33;20306;-74
2021/11/17 09:47:21;;;;;;;31.25;12.73;;;;;;;4.48;80.23;100838.47;8490993;33;20135;-74
2021/11/17 09:52:28;;;;;;;21.23;8.85;;;;;;;4.37;80.80;100839.81;8491980;33;20248;-74
2021/11/17 09:57:35;;;;;;;31.50;13.88;;;;;;;4.52;80.42;100832.88;8492586;33;20534;-75
2021/11/17 10:02:47;;;;;;;22.73;9.25;;;;;;;4.29;81.33;100830.50;8492533;33;20443;-75
2021/11/17 10:13:42;;;;;;;25.55;11.95;;;;;;;4.68;80.16;100840.13;8492321;33;20135;-74
2021/11/17 10:18:48;;;;;;;28.20;13.50;;;;;;;4.80;79.89;100839.50;8491254;33;20257;-75
2021/11/17 10:24:00;;;;;;;28.80;10.80;;;;;;;4.74;79.18;100838.03;8492212;33;20456;-75
2021/11/17 10:29:08;;;;;;;26.10;12.15;;;;;;;4.97;78.95;100823.56;8492712;33;20157;-74
2021/11/17 10:34:19;;;;;;;26.80;11.88;;;;;;;5.06;78.68;100820.47;8491905;33;20199;-73
2021/11/17 10:39:27;;;;;;;25.40;12.98;;;;;;;4.87;80.17;100822.31;8492003;33;20179;-74
2021/11/17 10:44:43;;;;;;;28.35;13.15;;;;;;;4.81;82.02;100827.94;8491375;33;20197;-75
2021/11/17 10:49:53;;;;;;;30.13;12.10;;;;;;;4.45;84.02;100826.16;8492604;33;20222;-74
2021/11/17 10:54:59;;;;;;;28.73;12.75;;;;;;;4.27;85.16;100813.75;8491994;33;20182;-75
2021/11/17 11:00:08;;;;;;;24.45;10.70;;;;;;;4.36;84.91;100810.63;8491976;33;20734;-75
2021/11/17 11:05:17;;;;;;;26.20;11.77;;;;;;;4.34;85.33;100825.81;8499516;33;20182;-75
2021/11/17 11:10:28;;;;;;;29.65;12.73;;;;;;;4.55;84.84;100818.56;8493470;33;20791;-76
2021/11/17 11:15:37;;;;;;;21.83;11.52;;;;;;;4.66;84.32;100800.28;8489325;33;20245;-76
2021/11/17 11:20:52;;;;;;;28.60;11.57;;;;;;;4.94;83.29;100804.25;8493034;33;21624;-76
2021/11/17 11:26:14;;;;;;;29.70;12.85;;;;;;;5.30;82.40;100805.97;8491322;33;21024;-75
2021/11/17 11:31:34;;;;;;;26.77;13.20;;;;;;;5.04;83.13;100813.50;8490104;33;20545;-74
2021/11/17 11:36:46;;;;;;;30.20;13.70;;;;;;;5.09;83.13;100815.94;8489199;33;20245;-75
2021/11/17 11:42:40;;;;;;;28.13;11.77;;;;;;;5.13;82.76;100820.16;8490178;33;20238;-75
2021/11/17 11:47:52;;;;;;;26.30;11.43;;;;;;;5.06;83.17;100824.94;8486726;33;20688;-75
2021/11/17 11:53:07;;;;;;;24.33;10.93;;;;;;;4.90;83.84;100824.81;8490809;33;20186;-76
2021/11/17 11:58:40;;;;;;;32.65;14.68;;;;;;;5.18;83.70;100820.78;8499767;33;20274;-75
2021/11/17 12:03:52;;;;;;;32.85;12.70;;;;;;;5.10;84.36;100821.19;8494430;33;20191;-75
2021/11/17 12:09:17;;;;;;;38.70;16.15;;;;;;;5.13;84.35;100814.81;8349731;33;20178;-75
2021/11/17 12:14:37;;;;;;;33.00;14.65;;;;;;;5.19;84.68;100807.41;8324072;33;20149;-74
2021/11/17 12:19:50;;;;;;;39.45;16.13;;;;;;;5.16;85.54;100826.19;8320049;33;20413;-74
2021/11/17 12:25:14;;;;;;;41.47;17.42;;;;;;;5.19;85.82;100855.34;8327014;33;20206;-74
2021/11/17 12:30:35;;;;;;;39.47;15.00;;;;;;;4.74;87.21;100861.13;8350115;33;21044;-74
2021/11/17 12:35:47;;;;;;;45.83;19.65;;;;;;;5.22;86.49;100851.66;8345759;33;21755;-75
2021/11/17 12:40:57;;;;;;;37.72;15.13;;;;;;;5.05;87.41;100853.38;8346003;33;20468;-75
2021/11/17 12:46:11;;;;;;;42.25;18.17;;;;;;;5.25;87.57;100852.34;8337718;33;20427;-75
2021/11/17 12:51:19;;;;;;;35.30;14.77;;;;;;;5.19;87.74;100854.47;8339763;33;21313;-75
2021/11/17 12:56:29;;;;;;;40.50;17.55;;;;;;;5.29;87.86;100855.72;8339217;33;20640;-75
2021/11/17 13:01:39;;;;;;;35.92;15.10;;;;;;;5.46;87.06;100846.88;8339690;33;20157;-75
2021/11/17 13:06:52;;;;;;;35.90;16.08;;;;;;;5.63;87.49;100827.31;8356147;33;20241;-76
2021/11/17 13:12:17;;;;;;;28.13;13.48;;;;;;;5.75;87.08;100820.47;8365400;33;20465;-75
2021/11/17 13:17:24;;;;;;;35.50;16.23;;;;;;;5.85;86.73;100819.03;8345735;33;20480;-74
2021/11/17 13:22:33;;;;;;;33.55;15.73;;;;;;;6.15;86.67;100821.81;8351155;33;21400;-75
2021/11/17 13:27:43;;;;;;;35.50;15.35;;;;;;;5.97;87.03;100841.47;8346619;33;20528;-75
2021/11/17 13:32:49;;;;;;;38.47;17.17;;;;;;;6.03;86.51;100851.81;8370123;33;20146;-75
2021/11/17 13:38:11;;;;;;;36.38;15.85;;;;;;;6.00;86.80;100852.84;8377264;33;20157;-75
2021/11/17 13:43:18;;;;;;;29.33;14.68;;;;;;;6.13;86.09;100856.56;8348641;33;20431;-74
2021/11/17 13:48:26;;;;;;;31.27;16.27;;;;;;;6.02;86.35;100866.97;8355929;33;20196;-74
2021/11/17 13:53:30;;;;;;;34.33;16.63;;;;;;;6.38;85.32;100865.88;8354342;33;20545;-74
2021/11/17 13:58:35;;;;;;;37.50;16.67;;;;;;;6.33;85.26;100884.78;8352548;33;20155;-74
2021/11/17 14:03:39;;;;;;;34.95;17.23;;;;;;;6.26;85.38;100891.44;8349580;33;21028;-74
2021/11/17 14:08:42;;;;;;;39.78;17.77;;;;;;;6.05;86.58;100892.59;8326689;33;20320;-75
2021/11/17 14:13:48;;;;;;;32.35;15.50;;;;;;;5.89;86.76;100903.22;8319319;33;20990;-75
2021/11/17 14:18:51;;;;;;;38.83;19.27;;;;;;;5.97;86.21;100898.34;8317736;33;20459;-75
2021/11/17 14:23:55;;;;;;;39.95;19.38;;;;;;;6.03;86.47;100913.16;8315705;33;21103;-75
2021/11/17 14:29:39;;;;;;;46.25;21.17;;;;;;;6.31;85.84;100901.88;8336817;33;20445;-76
2021/11/17 14:34:59;;;;;;;39.75;19.95;;;;;;;6.20;85.87;100905.13;8319468;33;20414;-75
2021/11/17 14:40:18;;;;;;;37.53;17.77;;;;;;;6.17;86.11;100890.16;8328381;33;20427;-76
2021/11/17 14:45:46;;;;;;;43.83;21.58;;;;;;;6.43;85.41;100898.50;8306384;33;20452;-75
2021/11/17 14:51:02;;;;;;;45.97;21.33;;;;;;;6.34;85.00;100907.88;8338711;33;20257;-75
2021/11/17 14:57:00;;;;;;;45.83;20.65;;;;;;;6.28;85.53;100912.69;8310822;33;21031;-76
2021/11/17 15:07:40;;;;;;;37.10;13.73;;;;;;;6.09;85.54;100928.84;8330852;33;20151;-75
2021/11/17 15:13:04;;;;;;;42.20;18.05;;;;;;;6.32;84.83;100927.59;8351729;33;20139;-75
2021/11/17 15:18:32;;;;;;;40.13;19.70;;;;;;;6.15;85.32;100933.84;8284453;33;20415;-75
2021/11/17 15:23:47;;;;;;;39.88;18.65;;;;;;;6.17;85.27;100940.81;8333509;33;20531;-75
2021/11/17 15:29:15;;;;;;;35.30;16.92;;;;;;;6.00;85.63;100942.66;8329425;33;20446;-75
2021/11/17 15:35:05;;;;;;;39.78;18.63;;;;;;;6.05;85.86;100940.63;8345213;33;20493;-74
2021/11/17 15:40:32;;;;;;;39.05;17.40;;;;;;;6.19;85.20;100930.06;8321871;33;20237;-75
2021/11/17 15:45:37;;;;;;;33.72;15.95;;;;;;;6.05;84.91;100940.63;8316363;33;20426;-75
2021/11/17 15:50:46;;;;;;;34.08;16.58;;;;;;;6.03;85.41;100945.16;8316794;33;20210;-75
2021/11/17 15:55:50;;;;;;;38.78;17.00;;;;;;;5.98;85.98;100949.88;8315399;33;20202;-74
2021/11/17 16:00:53;;;;;;;28.73;15.02;;;;;;;5.94;85.78;100949.19;8315207;33;20327;-74
2021/11/17 16:06:03;;;;;;;31.10;14.43;;;;;;;5.79;85.63;100971.28;8315384;33;20539;-76
2021/11/17 16:11:07;;;;;;;29.73;14.53;;;;;;;5.76;85.75;100968.78;8309236;33;20982;-75
2021/11/17 16:16:10;;;;;;;36.03;16.23;;;;;;;5.79;85.46;100969.53;8313951;33;20155;-74
2021/11/17 16:21:15;;;;;;;36.17;15.73;;;;;;;5.64;86.80;100972.97;8315952;33;20657;-74
2021/11/17 16:26:25;;;;;;;28.55;11.50;;;;;;;5.74;86.06;100974.22;8315205;33;20151;-74
2021/11/17 16:31:36;;;;;;;35.35;16.63;;;;;;;5.77;86.25;100979.41;8321890;33;20433;-75
2021/11/17 16:36:46;;;;;;;31.92;14.73;;;;;;;5.72;86.95;100995.63;8339275;33;20290;-75
2021/11/17 16:41:49;;;;;;;30.85;15.13;;;;;;;5.94;85.45;100982.03;8376969;33;20189;-74
2021/11/17 16:46:53;;;;;;;33.35;15.45;;;;;;;5.60;86.85;101011.38;8379149;33;20184;-75
2021/11/17 16:52:16;;;;;;;29.38;14.38;;;;;;;5.81;85.78;101004.94;8374535;33;20428;-75
2021/11/17 16:57:22;;;;;;;38.58;15.88;;;;;;;5.81;85.42;101012.94;8371256;33;20509;-74
2021/11/17 17:02:28;;;;;;;38.45;16.85;;;;;;;5.67;86.01;101020.78;8367186;33;21121;-74
2021/11/17 17:07:33;;;;;;;33.88;14.82;;;;;;;5.49;86.75;101041.22;8369637;33;20479;-74
2021/11/17 17:12:37;;;;;;;24.88;11.63;;;;;;;5.54;86.79;101040.97;8368394;33;20460;-74
2021/11/17 17:17:40;;;;;;;32.47;12.90;;;;;;;5.36;86.95;101058.75;8368066;33;20143;-75
2021/11/17 17:22:46;;;;;;;27.23;12.77;;;;;;;5.48;87.00;101072.31;8372404;33;20450;-76
2021/11/17 17:27:50;;;;;;;37.10;14.40;;;;;;;5.30;87.19;101069.72;8372692;33;20572;-76
2021/11/17 17:32:54;;;;;;;39.60;16.98;;;;;;;5.47;86.91;101088.41;8371165;33;20667;-76
2021/11/17 17:37:59;;;;;;;35.35;15.77;;;;;;;5.31;87.50;101093.59;8366690;33;20429;-76
2021/11/17 17:43:02;;;;;;;39.28;15.82;;;;;;;5.20;87.99;101098.59;8368106;33;20166;-76
2021/11/17 17:48:07;;;;;;;43.30;17.48;;;;;;;5.40;87.46;101097.63;8372308;33;22515;-76
2021/11/17 17:53:15;;;;;;;38.08;16.52;;;;;;;5.37;86.72;101103.09;8372339;33;20161;-76
2021/11/17 17:58:19;;;;;;;39.78;17.58;;;;;;;5.57;86.71;101111.00;8372932;33;20321;-76
2021/11/17 18:10:32;;;;;;;41.05;16.83;;;;;;;5.46;86.90;101124.00;8378957;33;20178;-76
2021/11/17 18:15:38;;;;;;;40.80;16.33;;;;;;;5.50;86.99;101131.75;8395898;33;20183;-74
2021/11/17 18:20:41;;;;;;;47.90;16.92;;;;;;;5.56;87.00;101140.41;8375540;33;20155;-74
2021/11/17 18:25:50;;;;;;;49.95;19.63;;;;;;;5.61;86.46;101151.69;8372022;33;20969;-74
2021/11/17 18:31:00;;;;;;;42.28;18.60;;;;;;;5.76;86.23;101150.97;8369082;33;20205;-74
2021/11/17 18:36:06;;;;;;;39.28;17.73;;;;;;;5.69;86.01;101147.72;8369877;33;20441;-74
2021/11/17 18:41:23;;;;;;;42.10;17.50;;;;;;;5.69;86.79;101147.72;8374133;33;20410;-73
2021/11/17 18:46:26;;;;;;;44.50;18.52;;;;;;;5.57;87.53;101163.44;8381015;33;21799;-74
2021/11/17 18:51:30;;;;;;;43.63;15.65;;;;;;;5.74;86.61;101166.16;8389627;33;21815;-74
2021/11/17 18:56:36;;;;;;;49.83;19.33;;;;;;;5.72;86.45;101158.22;8382562;33;20432;-74
2021/11/17 19:01:47;;;;;;;45.63;19.40;;;;;;;5.61;87.16;101165.03;8377901;33;21644;-74
2021/11/17 19:06:53;;;;;;;49.47;17.30;;;;;;;5.62;86.96;101170.31;8385211;33;21045;-74
2021/11/17 19:11:59;;;;;;;47.47;18.98;;;;;;;5.53;87.84;101176.06;8394672;33;20139;-74
2021/11/17 19:17:08;;;;;;;39.65;15.80;;;;;;;5.62;87.94;101182.75;8393819;33;20273;-74
2021/11/17 19:22:11;;;;;;;35.50;13.73;;;;;;;5.67;87.30;101196.72;8392164;33;20494;-74
2021/11/17 19:27:15;;;;;;;42.05;17.23;;;;;;;5.68;88.05;101203.78;8392129;33;21035;-74
2021/11/17 19:32:19;;;;;;;50.33;19.77;;;;;;;5.74;88.93;101208.81;8386408;33;20536;-74
2021/11/17 19:37:24;;;;;;;53.15;18.50;;;;;;;5.80;87.75;101213.84;8377253;33;20241;-75
2021/11/17 19:42:30;;;;;;;56.08;20.73;;;;;;;5.92;87.22;101205.28;8380516;33;20475;-74
2021/11/17 19:47:34;;;;;;;59.85;21.77;;;;;;;5.92;86.78;101218.63;8387246;33;20189;-74
2021/11/17 19:52:38;;;;;;;58.70;22.97;;;;;;;6.03;87.17;101212.75;8392720;33;20574;-74
2021/11/17 19:57:41;;;;;;;61.87;23.57;;;;;;;5.98;87.05;101216.56;8393766;33;22145;-74
2021/11/17 20:02:47;;;;;;;49.78;20.00;;;;;;;5.98;87.06;101232.56;8398298;33;20935;-74
2021/11/17 20:07:50;;;;;;;48.97;18.92;;;;;;;5.95;86.69;101238.91;8394789;33;20186;-74
2021/11/17 20:12:53;;;;;;;54.67;18.45;;;;;;;5.88;86.16;101238.34;8396867;33;20611;-74
2021/11/17 20:17:58;;;;;;;45.78;18.98;;;;;;;5.98;86.01;101243.25;8395449;33;20422;-73
2021/11/17 20:23:01;;;;;;;48.10;18.48;;;;;;;5.97;86.65;101239.72;8394955;33;20173;-74
2021/11/17 20:28:06;;;;;;;42.97;17.20;;;;;;;5.64;87.14;101250.19;8391286;33;20837;-74
2021/11/17 20:33:12;;;;;;;43.15;16.95;;;;;;;5.81;86.86;101260.91;8394284;33;20146;-74
2021/11/17 20:38:16;;;;;;;52.03;18.35;;;;;;;5.55;88.76;101277.28;8396844;33;21948;-74
2021/11/17 20:43:20;;;;;;;55.03;21.40;;;;;;;5.66;88.93;101270.50;8392367;33;20138;-74
2021/11/17 20:48:24;;;;;;;52.38;20.00;;;;;;;5.79;88.20;101269.91;8393503;33;20174;-74
2021/11/17 20:53:30;;;;;;;50.25;18.45;;;;;;;5.58;88.80;101287.78;8392816;33;20459;-74
2021/11/17 20:58:34;;;;;;;48.03;19.92;;;;;;;5.79;87.73;101261.91;8394166;33;20456;-74
2021/11/17 21:03:39;;;;;;;42.53;17.65;;;;;;;5.63;88.20;101264.47;8385219;33;20482;-74
2021/11/17 21:08:42;;;;;;;38.63;14.32;;;;;;;5.25;89.02;101267.06;8377395;33;20474;-74
2021/11/17 21:13:45;;;;;;;41.13;18.40;;;;;;;5.31;89.12;101284.56;8359584;33;20434;-75
2021/11/17 21:18:52;;;;;;;50.30;17.67;;;;;;;5.25;89.45;101273.25;8346911;33;21109;-75
2021/11/17 21:23:55;;;;;;;33.97;9.88;;;;;;;5.22;89.00;101286.72;8342188;33;20698;-75
2021/11/17 21:28:59;;;;;;;42.22;17.92;;;;;;;5.28;89.50;101296.22;8347548;33;20139;-75
2021/11/17 21:34:04;;;;;;;38.65;15.20;;;;;;;5.22;88.81;101294.69;8345299;33;20544;-75
2021/11/17 21:39:08;;;;;;;39.58;15.07;;;;;;;4.98;89.59;101299.25;8345133;33;21159;-75
2021/11/17 21:44:13;;;;;;;47.90;17.88;;;;;;;5.23;88.50;101308.88;8349897;33;21813;-74
2021/11/17 21:49:18;;;;;;;43.50;16.95;;;;;;;5.27;88.77;101306.03;8361339;33;20458;-74
2021/11/17 21:54:21;;;;;;;25.98;12.00;;;;;;;5.08;89.26;101301.59;8364751;33;20426;-74
2021/11/17 21:59:25;;;;;;;46.15;18.55;;;;;;;5.18;88.73;101294.91;8362190;33;20692;-74
2021/11/17 22:04:29;;;;;;;38.75;16.17;;;;;;;5.13;88.97;101299.56;8374063;33;21472;-74
2021/11/17 22:09:34;;;;;;;51.15;22.10;;;;;;;5.15;88.37;101303.88;8374628;33;20151;-74
2021/11/17 22:14:38;;;;;;;44.78;19.05;;;;;;;4.90;89.03;101304.06;8361912;33;20987;-76
2021/11/17 22:19:42;;;;;;;34.25;14.57;;;;;;;4.78;89.06;101300.13;8343987;33;20158;-76
2021/11/17 22:24:45;;;;;;;54.15;17.30;;;;;;;4.88;89.09;101313.88;8341072;33;20542;-74
2021/11/17 22:29:49;;;;;;;46.78;17.30;;;;;;;5.15;87.29;101319.88;8347228;33;20923;-74
2021/11/17 22:35:01;;;;;;;42.63;16.90;;;;;;;4.89;87.46;101318.31;8344713;33;20245;-74
2021/11/17 22:40:07;;;;;;;40.40;16.25;;;;;;;4.90;87.91;101322.69;8348979;33;20462;-73
2021/11/17 22:45:11;;;;;;;42.03;16.85;;;;;;;4.90;87.23;101328.00;8358589;33;20603;-74
2021/11/17 22:50:18;;;;;;;47.25;17.27;;;;;;;4.96;87.30;101327.75;8347648;33;20229;-74
2021/11/17 22:55:24;;;;;;;33.15;14.77;;;;;;;4.87;86.77;101343.25;8332642;33;20439;-73
2021/11/17 23:00:32;;;;;;;38.05;14.27;;;;;;;4.82;87.13;101343.44;8328172;33;20426;-73
2021/11/17 23:05:38;;;;;;;42.33;16.08;;;;;;;4.61;88.14;101351.41;8329626;33;21007;-73
2021/11/17 23:10:43;;;;;;;44.97;17.15;;;;;;;4.79;87.34;101340.91;8322026;33;20197;-73
2021/11/17 23:15:49;;;;;;;40.90;15.20;;;;;;;4.62;86.96;101360.25;8322000;33;21114;-74
2021/11/17 23:20:57;;;;;;;40.63;17.63;;;;;;;4.83;86.54;101364.69;8321603;33;20183;-74
2021/11/17 23:26:09;;;;;;;57.22;15.93;;;;;;;4.60;86.71;101360.28;8320477;33;20435;-73
2021/11/17 23:31:14;;;;;;;42.50;16.15;;;;;;;4.72;87.22;101352.75;8319807;33;20546;-73
2021/11/17 23:36:19;;;;;;;39.88;13.70;;;;;;;4.72;86.27;101345.63;8321573;33;20525;-73
2021/11/17 23:41:25;;;;;;;41.30;15.10;;;;;;;4.77;86.50;101330.34;8333040;33;21536;-73
2021/11/17 23:46:29;;;;;;;36.35;14.80;;;;;;;4.61;86.99;101338.09;8333352;33;20985;-74
2021/11/17 23:51:35;;;;;;;34.92;13.65;;;;;;;4.62;86.07;101346.94;8337367;33;20438;-74
2021/11/17 23:56:38;;;;;;;32.65;13.45;;;;;;;4.59;86.33;101349.72;8339685;33;20534;-74
